sensor_id;sensor_type;location;lat;lon;timestamp;P1;durP1;ratioP1;P2;durP2;ratioP2
75038;SDS011;63609;49.992;14.512;2022-12-20T00:02:02;42.10;;;15.68;;
75038;SDS011;63609;49.992;14.512;2022-12-20T00:07:02;41.70;;;13.90;;
75038;SDS011;63609;49.992;14.512;2022-12-20T00:09:32;33.75;;;13.05;;
75038;SDS011;63609;49.992;14.512;2022-12-20T00:11:58;35.50;;;14.52;;
75038;SDS011;63609;49.992;14.512;2022-12-20T00:14:25;50.22;;;16.52;;
75038;SDS011;63609;49.992;14.512;2022-12-20T00:16:52;40.72;;;16.80;;
75038;SDS011;63609;49.992;14.512;2022-12-20T00:21:52;42.53;;;16.55;;
75038;SDS011;63609;49.992;14.512;2022-12-20T00:24:19;32.85;;;13.93;;
75038;SDS011;63609;49.992;14.512;2022-12-20T00:26:51;43.10;;;14.50;;
75038;SDS011;63609;49.992;14.512;2022-12-20T00:31:48;37.20;;;14.88;;
75038;SDS011;63609;49.992;14.512;2022-12-20T00:36:42;38.88;;;14.68;;
75038;SDS011;63609;49.992;14.512;2022-12-20T00:41:39;39.58;;;14.38;;
75038;SDS011;63609;49.992;14.512;2022-12-20T00:44:08;43.35;;;16.27;;
75038;SDS011;63609;49.992;14.512;2022-12-20T00:46:38;51.22;;;17.27;;
75038;SDS011;63609;49.992;14.512;2022-12-20T00:49:08;47.97;;;18.33;;
75038;SDS011;63609;49.992;14.512;2022-12-20T00:51:34;50.63;;;16.80;;
75038;SDS011;63609;49.992;14.512;2022-12-20T00:54:01;50.25;;;16.35;;
75038;SDS011;63609;49.992;14.512;2022-12-20T00:56:34;43.75;;;15.55;;
75038;SDS011;63609;49.992;14.512;2022-12-20T00:59:00;43.55;;;16.67;;
75038;SDS011;63609;49.992;14.512;2022-12-20T01:01:30;50.13;;;16.17;;
75038;SDS011;63609;49.992;14.512;2022-12-20T01:04:01;36.78;;;14.13;;
75038;SDS011;63609;49.992;14.512;2022-12-20T01:09:01;44.45;;;15.93;;
75038;SDS011;63609;49.992;14.512;2022-12-20T01:11:38;48.83;;;17.10;;
75038;SDS011;63609;49.992;14.512;2022-12-20T01:14:26;46.72;;;17.67;;
75038;SDS011;63609;49.992;14.512;2022-12-20T01:17:04;47.35;;;17.23;;
75038;SDS011;63609;49.992;14.512;2022-12-20T01:19:59;51.50;;;18.65;;
75038;SDS011;63609;49.992;14.512;2022-12-20T01:22:44;42.03;;;15.32;;
75038;SDS011;63609;49.992;14.512;2022-12-20T01:25:39;41.22;;;17.75;;
75038;SDS011;63609;49.992;14.512;2022-12-20T01:28:25;46.22;;;16.00;;
75038;SDS011;63609;49.992;14.512;2022-12-20T01:31:05;44.97;;;16.08;;
75038;SDS011;63609;49.992;14.512;2022-12-20T01:33:44;51.05;;;17.40;;
75038;SDS011;63609;49.992;14.512;2022-12-20T01:36:23;45.75;;;17.10;;
75038;SDS011;63609;49.992;14.512;2022-12-20T01:39:14;45.55;;;16.60;;
75038;SDS011;63609;49.992;14.512;2022-12-20T01:41:54;42.05;;;15.43;;
75038;SDS011;63609;49.992;14.512;2022-12-20T01:47:15;42.50;;;16.40;;
75038;SDS011;63609;49.992;14.512;2022-12-20T01:49:46;36.03;;;14.43;;
75038;SDS011;63609;49.992;14.512;2022-12-20T01:52:23;41.28;;;16.83;;
75038;SDS011;63609;49.992;14.512;2022-12-20T01:55:14;38.40;;;13.75;;
75038;SDS011;63609;49.992;14.512;2022-12-20T01:58:07;48.40;;;17.77;;
75038;SDS011;63609;49.992;14.512;2022-12-20T02:00:37;47.42;;;16.85;;
75038;SDS011;63609;49.992;14.512;2022-12-20T02:06:15;41.00;;;15.45;;
75038;SDS011;63609;49.992;14.512;2022-12-20T02:15:34;34.03;;;12.10;;
75038;SDS011;63609;49.992;14.512;2022-12-20T02:18:26;38.00;;;13.32;;
75038;SDS011;63609;49.992;14.512;2022-12-20T02:27:28;40.58;;;14.85;;
75038;SDS011;63609;49.992;14.512;2022-12-20T02:30:14;37.30;;;14.98;;
75038;SDS011;63609;49.992;14.512;2022-12-20T02:35:25;41.55;;;14.25;;
75038;SDS011;63609;49.992;14.512;2022-12-20T02:38:00;41.08;;;14.85;;
75038;SDS011;63609;49.992;14.512;2022-12-20T02:40:39;36.05;;;14.82;;
75038;SDS011;63609;49.992;14.512;2022-12-20T02:43:09;38.92;;;14.77;;
75038;SDS011;63609;49.992;14.512;2022-12-20T02:46:25;43.60;;;14.18;;
75038;SDS011;63609;49.992;14.512;2022-12-20T02:49:02;37.40;;;13.90;;
75038;SDS011;63609;49.992;14.512;2022-12-20T02:51:49;37.67;;;14.90;;
75038;SDS011;63609;49.992;14.512;2022-12-20T02:54:52;40.65;;;14.18;;
75038;SDS011;63609;49.992;14.512;2022-12-20T03:01:28;31.88;;;12.32;;
75038;SDS011;63609;49.992;14.512;2022-12-20T03:04:23;37.08;;;13.50;;
75038;SDS011;63609;49.992;14.512;2022-12-20T03:07:03;32.22;;;13.07;;
75038;SDS011;63609;49.992;14.512;2022-12-20T03:09:37;44.40;;;12.68;;
75038;SDS011;63609;49.992;14.512;2022-12-20T03:12:11;40.28;;;14.27;;
75038;SDS011;63609;49.992;14.512;2022-12-20T03:14:43;37.72;;;14.23;;
75038;SDS011;63609;49.992;14.512;2022-12-20T03:17:53;40.83;;;14.07;;
75038;SDS011;63609;49.992;14.512;2022-12-20T03:20:31;41.15;;;13.90;;
75038;SDS011;63609;49.992;14.512;2022-12-20T03:23:01;36.55;;;12.80;;
75038;SDS011;63609;49.992;14.512;2022-12-20T03:28:46;39.47;;;14.02;;
75038;SDS011;63609;49.992;14.512;2022-12-20T03:32:05;51.05;;;14.85;;
75038;SDS011;63609;49.992;14.512;2022-12-20T03:39:22;33.00;;;14.25;;
75038;SDS011;63609;49.992;14.512;2022-12-20T03:53:10;30.93;;;12.70;;
75038;SDS011;63609;49.992;14.512;2022-12-20T03:55:50;37.45;;;12.45;;
75038;SDS011;63609;49.992;14.512;2022-12-20T03:58:30;38.50;;;12.23;;
75038;SDS011;63609;49.992;14.512;2022-12-20T04:03:57;38.35;;;12.60;;
75038;SDS011;63609;49.992;14.512;2022-12-20T04:06:31;37.58;;;14.40;;
75038;SDS011;63609;49.992;14.512;2022-12-20T04:12:13;37.25;;;12.30;;
75038;SDS011;63609;49.992;14.512;2022-12-20T04:15:07;39.90;;;14.27;;
75038;SDS011;63609;49.992;14.512;2022-12-20T04:17:44;35.28;;;12.73;;
75038;SDS011;63609;49.992;14.512;2022-12-20T04:20:13;43.05;;;13.68;;
75038;SDS011;63609;49.992;14.512;2022-12-20T04:23:00;36.53;;;12.85;;
75038;SDS011;63609;49.992;14.512;2022-12-20T04:25:32;39.17;;;14.07;;
75038;SDS011;63609;49.992;14.512;2022-12-20T04:27:59;46.28;;;15.52;;
75038;SDS011;63609;49.992;14.512;2022-12-20T04:30:26;44.95;;;13.88;;
75038;SDS011;63609;49.992;14.512;2022-12-20T04:36:07;45.05;;;14.30;;
75038;SDS011;63609;49.992;14.512;2022-12-20T04:38:43;38.17;;;14.05;;
75038;SDS011;63609;49.992;14.512;2022-12-20T04:41:37;32.45;;;12.40;;
75038;SDS011;63609;49.992;14.512;2022-12-20T04:44:11;29.35;;;12.45;;
75038;SDS011;63609;49.992;14.512;2022-12-20T04:47:02;31.15;;;12.18;;
75038;SDS011;63609;49.992;14.512;2022-12-20T04:49:30;40.17;;;13.63;;
75038;SDS011;63609;49.992;14.512;2022-12-20T04:52:01;48.40;;;14.95;;
75038;SDS011;63609;49.992;14.512;2022-12-20T04:54:54;38.28;;;13.43;;
75038;SDS011;63609;49.992;14.512;2022-12-20T04:57:32;47.72;;;14.50;;
75038;SDS011;63609;49.992;14.512;2022-12-20T05:00:02;41.58;;;15.85;;
75038;SDS011;63609;49.992;14.512;2022-12-20T05:05:43;40.50;;;14.40;;
75038;SDS011;63609;49.992;14.512;2022-12-20T05:08:14;43.35;;;15.10;;
75038;SDS011;63609;49.992;14.512;2022-12-20T05:10:42;34.60;;;13.10;;
75038;SDS011;63609;49.992;14.512;2022-12-20T05:13:33;36.88;;;14.52;;
75038;SDS011;63609;49.992;14.512;2022-12-20T05:16:00;45.05;;;13.98;;
75038;SDS011;63609;49.992;14.512;2022-12-20T05:18:35;41.42;;;13.38;;
75038;SDS011;63609;49.992;14.512;2022-12-20T05:21:21;38.70;;;14.20;;
75038;SDS011;63609;49.992;14.512;2022-12-20T05:24:08;49.50;;;13.57;;
75038;SDS011;63609;49.992;14.512;2022-12-20T05:27:20;39.92;;;13.88;;
75038;SDS011;63609;49.992;14.512;2022-12-20T05:29:50;43.97;;;15.20;;
75038;SDS011;63609;49.992;14.512;2022-12-20T05:32:19;37.60;;;14.30;;
75038;SDS011;63609;49.992;14.512;2022-12-20T05:35:06;38.65;;;13.43;;
75038;SDS011;63609;49.992;14.512;2022-12-20T05:37:42;37.03;;;13.98;;
75038;SDS011;63609;49.992;14.512;2022-12-20T05:40:31;42.60;;;14.70;;
75038;SDS011;63609;49.992;14.512;2022-12-20T05:46:03;38.53;;;13.63;;
75038;SDS011;63609;49.992;14.512;2022-12-20T05:48:42;40.63;;;12.80;;
75038;SDS011;63609;49.992;14.512;2022-12-20T05:51:15;38.33;;;14.52;;
75038;SDS011;63609;49.992;14.512;2022-12-20T05:53:55;44.50;;;16.10;;
75038;SDS011;63609;49.992;14.512;2022-12-20T05:56:37;62.10;;;19.10;;
75038;SDS011;63609;49.992;14.512;2022-12-20T05:59:13;54.03;;;18.95;;
75038;SDS011;63609;49.992;14.512;2022-12-20T06:01:45;51.28;;;15.07;;
75038;SDS011;63609;49.992;14.512;2022-12-20T06:04:12;52.25;;;17.05;;
75038;SDS011;63609;49.992;14.512;2022-12-20T06:06:41;58.30;;;19.00;;
75038;SDS011;63609;49.992;14.512;2022-12-20T06:09:14;45.67;;;16.30;;
75038;SDS011;63609;49.992;14.512;2022-12-20T06:11:49;44.40;;;15.05;;
75038;SDS011;63609;49.992;14.512;2022-12-20T06:14:26;37.28;;;12.73;;
75038;SDS011;63609;49.992;14.512;2022-12-20T06:17:00;40.72;;;15.15;;
75038;SDS011;63609;49.992;14.512;2022-12-20T06:19:30;43.30;;;13.95;;
75038;SDS011;63609;49.992;14.512;2022-12-20T06:22:01;39.60;;;13.02;;
75038;SDS011;63609;49.992;14.512;2022-12-20T06:24:40;41.15;;;14.40;;
75038;SDS011;63609;49.992;14.512;2022-12-20T06:27:35;49.95;;;16.35;;
75038;SDS011;63609;49.992;14.512;2022-12-20T06:30:13;34.63;;;13.55;;
75038;SDS011;63609;49.992;14.512;2022-12-20T06:33:02;41.97;;;13.73;;
75038;SDS011;63609;49.992;14.512;2022-12-20T06:35:30;41.88;;;14.40;;
75038;SDS011;63609;49.992;14.512;2022-12-20T06:38:07;42.70;;;14.30;;
75038;SDS011;63609;49.992;14.512;2022-12-20T06:40:36;46.75;;;15.88;;
75038;SDS011;63609;49.992;14.512;2022-12-20T06:43:04;43.83;;;14.55;;
75038;SDS011;63609;49.992;14.512;2022-12-20T06:45:34;39.47;;;14.05;;
75038;SDS011;63609;49.992;14.512;2022-12-20T06:48:08;34.58;;;14.60;;
75038;SDS011;63609;49.992;14.512;2022-12-20T06:50:42;39.58;;;14.38;;
75038;SDS011;63609;49.992;14.512;2022-12-20T06:53:10;41.72;;;13.77;;
75038;SDS011;63609;49.992;14.512;2022-12-20T06:55:40;41.05;;;14.45;;
75038;SDS011;63609;49.992;14.512;2022-12-20T06:58:08;37.83;;;12.63;;
75038;SDS011;63609;49.992;14.512;2022-12-20T07:00:39;28.50;;;11.85;;
75038;SDS011;63609;49.992;14.512;2022-12-20T07:03:08;34.13;;;12.25;;
75038;SDS011;63609;49.992;14.512;2022-12-20T07:05:39;41.38;;;14.18;;
75038;SDS011;63609;49.992;14.512;2022-12-20T07:08:09;39.00;;;15.18;;
75038;SDS011;63609;49.992;14.512;2022-12-20T07:10:40;45.28;;;15.38;;
75038;SDS011;63609;49.992;14.512;2022-12-20T07:13:11;42.63;;;15.75;;
75038;SDS011;63609;49.992;14.512;2022-12-20T07:15:39;37.85;;;14.07;;
75038;SDS011;63609;49.992;14.512;2022-12-20T07:18:08;40.72;;;14.60;;
75038;SDS011;63609;49.992;14.512;2022-12-20T07:20:39;43.20;;;14.93;;
75038;SDS011;63609;49.992;14.512;2022-12-20T07:23:06;40.28;;;13.88;;
75038;SDS011;63609;49.992;14.512;2022-12-20T07:25:34;37.30;;;14.68;;
75038;SDS011;63609;49.992;14.512;2022-12-20T07:28:02;42.97;;;15.50;;
75038;SDS011;63609;49.992;14.512;2022-12-20T07:30:38;39.38;;;14.63;;
75038;SDS011;63609;49.992;14.512;2022-12-20T07:35:35;38.38;;;13.43;;
75038;SDS011;63609;49.992;14.512;2022-12-20T07:38:20;38.50;;;13.75;;
75038;SDS011;63609;49.992;14.512;2022-12-20T07:46:46;37.83;;;14.35;;
75038;SDS011;63609;49.992;14.512;2022-12-20T07:49:31;43.72;;;13.75;;
75038;SDS011;63609;49.992;14.512;2022-12-20T07:53:23;39.97;;;14.65;;
75038;SDS011;63609;49.992;14.512;2022-12-20T07:56:52;41.63;;;14.35;;
75038;SDS011;63609;49.992;14.512;2022-12-20T08:04:14;41.33;;;13.15;;
75038;SDS011;63609;49.992;14.512;2022-12-20T08:10:49;44.63;;;15.55;;
75038;SDS011;63609;49.992;14.512;2022-12-20T08:13:33;42.53;;;15.73;;
75038;SDS011;63609;49.992;14.512;2022-12-20T08:16:12;38.92;;;14.15;;
75038;SDS011;63609;49.992;14.512;2022-12-20T08:18:57;43.47;;;15.32;;
75038;SDS011;63609;49.992;14.512;2022-12-20T08:21:29;40.95;;;13.95;;
75038;SDS011;63609;49.992;14.512;2022-12-20T08:33:10;28.27;;;11.07;;
75038;SDS011;63609;49.992;14.512;2022-12-20T08:35:56;21.15;;;10.02;;
75038;SDS011;63609;49.992;14.512;2022-12-20T08:40:31;21.08;;;9.27;;
75038;SDS011;63609;49.992;14.512;2022-12-20T08:53:18;35.13;;;12.45;;
75038;SDS011;63609;49.992;14.512;2022-12-20T08:56:42;41.30;;;13.77;;
75038;SDS011;63609;49.992;14.512;2022-12-20T09:00:27;44.42;;;14.98;;
75038;SDS011;63609;49.992;14.512;2022-12-20T09:03:57;36.25;;;11.52;;
75038;SDS011;63609;49.992;14.512;2022-12-20T09:06:41;34.55;;;12.77;;
75038;SDS011;63609;49.992;14.512;2022-12-20T09:15:13;20.98;;;8.90;;
75038;SDS011;63609;49.992;14.512;2022-12-20T09:28:50;41.35;;;13.57;;
75038;SDS011;63609;49.992;14.512;2022-12-20T09:31:24;48.10;;;15.80;;
75038;SDS011;63609;49.992;14.512;2022-12-20T09:33:53;32.83;;;12.10;;
75038;SDS011;63609;49.992;14.512;2022-12-20T09:36:41;29.23;;;12.85;;
75038;SDS011;63609;49.992;14.512;2022-12-20T09:39:47;31.02;;;11.57;;
75038;SDS011;63609;49.992;14.512;2022-12-20T09:46:22;25.38;;;12.25;;
75038;SDS011;63609;49.992;14.512;2022-12-20T09:48:51;26.77;;;10.95;;
75038;SDS011;63609;49.992;14.512;2022-12-20T10:00:12;44.95;;;15.85;;
75038;SDS011;63609;49.992;14.512;2022-12-20T10:02:47;33.13;;;13.02;;
75038;SDS011;63609;49.992;14.512;2022-12-20T10:05:41;25.55;;;11.10;;
75038;SDS011;63609;49.992;14.512;2022-12-20T10:11:27;19.98;;;9.77;;
75038;SDS011;63609;49.992;14.512;2022-12-20T10:22:28;34.83;;;13.80;;
75038;SDS011;63609;49.992;14.512;2022-12-20T10:27:44;24.88;;;11.48;;
75038;SDS011;63609;49.992;14.512;2022-12-20T10:30:18;27.63;;;11.38;;
75038;SDS011;63609;49.992;14.512;2022-12-20T10:32:47;23.08;;;9.68;;
75038;SDS011;63609;49.992;14.512;2022-12-20T10:38:03;25.83;;;11.35;;
75038;SDS011;63609;49.992;14.512;2022-12-20T10:40:42;30.00;;;10.52;;
75038;SDS011;63609;49.992;14.512;2022-12-20T10:43:59;29.80;;;9.88;;
75038;SDS011;63609;49.992;14.512;2022-12-20T10:46:50;22.80;;;8.57;;
75038;SDS011;63609;49.992;14.512;2022-12-20T10:49:25;28.17;;;8.70;;
75038;SDS011;63609;49.992;14.512;2022-12-20T10:52:00;36.28;;;13.57;;
75038;SDS011;63609;49.992;14.512;2022-12-20T10:54:30;44.30;;;15.38;;
75038;SDS011;63609;49.992;14.512;2022-12-20T11:06:18;42.83;;;13.55;;
75038;SDS011;63609;49.992;14.512;2022-12-20T11:23:55;38.97;;;14.38;;
75038;SDS011;63609;49.992;14.512;2022-12-20T11:31:07;31.00;;;11.95;;
75038;SDS011;63609;49.992;14.512;2022-12-20T11:49:21;19.73;;;9.35;;
75038;SDS011;63609;49.992;14.512;2022-12-20T11:55:05;28.65;;;10.82;;
75038;SDS011;63609;49.992;14.512;2022-12-20T12:00:49;24.65;;;12.18;;
75038;SDS011;63609;49.992;14.512;2022-12-20T12:03:40;26.67;;;11.10;;
75038;SDS011;63609;49.992;14.512;2022-12-20T12:06:34;22.70;;;8.88;;
75038;SDS011;63609;49.992;14.512;2022-12-20T12:11:52;27.58;;;10.13;;
75038;SDS011;63609;49.992;14.512;2022-12-20T12:26:33;26.95;;;9.98;;
75038;SDS011;63609;49.992;14.512;2022-12-20T12:37:29;37.70;;;13.27;;
75038;SDS011;63609;49.992;14.512;2022-12-20T12:40:15;33.50;;;11.18;;
75038;SDS011;63609;49.992;14.512;2022-12-20T12:45:58;26.50;;;11.93;;
75038;SDS011;63609;49.992;14.512;2022-12-20T12:48:41;20.13;;;8.02;;
75038;SDS011;63609;49.992;14.512;2022-12-20T12:51:18;25.70;;;10.75;;
75038;SDS011;63609;49.992;14.512;2022-12-20T12:53:53;16.92;;;7.78;;
75038;SDS011;63609;49.992;14.512;2022-12-20T12:56:30;24.27;;;10.77;;
75038;SDS011;63609;49.992;14.512;2022-12-20T13:04:19;18.48;;;8.10;;
75038;SDS011;63609;49.992;14.512;2022-12-20T13:09:17;22.38;;;10.13;;
75038;SDS011;63609;49.992;14.512;2022-12-20T13:11:44;24.45;;;8.85;;
75038;SDS011;63609;49.992;14.512;2022-12-20T13:19:47;30.02;;;11.25;;
75038;SDS011;63609;49.992;14.512;2022-12-20T13:22:23;29.88;;;11.85;;
75038;SDS011;63609;49.992;14.512;2022-12-20T13:24:57;30.27;;;11.90;;
75038;SDS011;63609;49.992;14.512;2022-12-20T13:27:30;31.40;;;11.57;;
75038;SDS011;63609;49.992;14.512;2022-12-20T13:33:02;33.50;;;10.63;;
75038;SDS011;63609;49.992;14.512;2022-12-20T13:35:45;24.67;;;9.70;;
75038;SDS011;63609;49.992;14.512;2022-12-20T13:41:37;35.95;;;12.20;;
75038;SDS011;63609;49.992;14.512;2022-12-20T13:44:52;37.85;;;13.38;;
75038;SDS011;63609;49.992;14.512;2022-12-20T13:50:17;31.40;;;12.63;;
75038;SDS011;63609;49.992;14.512;2022-12-20T13:55:22;25.90;;;10.73;;
75038;SDS011;63609;49.992;14.512;2022-12-20T13:58:13;38.10;;;12.85;;
75038;SDS011;63609;49.992;14.512;2022-12-20T14:00:51;33.45;;;11.82;;
75038;SDS011;63609;49.992;14.512;2022-12-20T14:03:21;41.88;;;14.35;;
75038;SDS011;63609;49.992;14.512;2022-12-20T14:05:55;41.88;;;14.77;;
75038;SDS011;63609;49.992;14.512;2022-12-20T14:11:06;39.75;;;13.82;;
75038;SDS011;63609;49.992;14.512;2022-12-20T14:13:38;42.97;;;14.75;;
75038;SDS011;63609;49.992;14.512;2022-12-20T14:16:24;39.53;;;12.38;;
75038;SDS011;63609;49.992;14.512;2022-12-20T14:19:05;35.55;;;12.38;;
75038;SDS011;63609;49.992;14.512;2022-12-20T14:21:39;38.30;;;13.38;;
75038;SDS011;63609;49.992;14.512;2022-12-20T14:24:14;41.53;;;13.52;;
75038;SDS011;63609;49.992;14.512;2022-12-20T14:26:47;36.35;;;13.50;;
75038;SDS011;63609;49.992;14.512;2022-12-20T14:29:18;35.55;;;12.85;;
75038;SDS011;63609;49.992;14.512;2022-12-20T14:31:49;36.30;;;13.40;;
75038;SDS011;63609;49.992;14.512;2022-12-20T14:34:23;37.28;;;13.48;;
75038;SDS011;63609;49.992;14.512;2022-12-20T14:40:22;38.25;;;13.07;;
75038;SDS011;63609;49.992;14.512;2022-12-20T14:42:50;37.17;;;13.02;;
75038;SDS011;63609;49.992;14.512;2022-12-20T14:45:22;41.25;;;13.27;;
75038;SDS011;63609;49.992;14.512;2022-12-20T14:47:59;37.05;;;14.00;;
75038;SDS011;63609;49.992;14.512;2022-12-20T14:50:29;37.80;;;13.40;;
75038;SDS011;63609;49.992;14.512;2022-12-20T14:53:01;42.15;;;15.48;;
75038;SDS011;63609;49.992;14.512;2022-12-20T14:55:31;41.78;;;14.25;;
75038;SDS011;63609;49.992;14.512;2022-12-20T14:58:21;40.90;;;15.15;;
75038;SDS011;63609;49.992;14.512;2022-12-20T15:03:23;41.95;;;12.93;;
75038;SDS011;63609;49.992;14.512;2022-12-20T15:05:57;33.30;;;12.65;;
75038;SDS011;63609;49.992;14.512;2022-12-20T15:08:26;39.28;;;13.63;;
75038;SDS011;63609;49.992;14.512;2022-12-20T15:16:26;43.67;;;13.70;;
75038;SDS011;63609;49.992;14.512;2022-12-20T15:20:32;39.20;;;12.82;;
75038;SDS011;63609;49.992;14.512;2022-12-20T15:23:00;42.75;;;14.10;;
75038;SDS011;63609;49.992;14.512;2022-12-20T15:25:31;45.72;;;16.42;;
75038;SDS011;63609;49.992;14.512;2022-12-20T15:28:16;42.38;;;16.05;;
75038;SDS011;63609;49.992;14.512;2022-12-20T15:30:45;39.15;;;15.50;;
75038;SDS011;63609;49.992;14.512;2022-12-20T15:33:23;40.17;;;15.32;;
75038;SDS011;63609;49.992;14.512;2022-12-20T15:35:52;34.13;;;14.00;;
75038;SDS011;63609;49.992;14.512;2022-12-20T15:38:21;38.45;;;13.20;;
75038;SDS011;63609;49.992;14.512;2022-12-20T15:41:13;33.75;;;12.63;;
75038;SDS011;63609;49.992;14.512;2022-12-20T15:43:43;35.92;;;13.55;;
75038;SDS011;63609;49.992;14.512;2022-12-20T15:46:10;39.60;;;12.98;;
75038;SDS011;63609;49.992;14.512;2022-12-20T15:48:37;34.10;;;12.20;;
75038;SDS011;63609;49.992;14.512;2022-12-20T15:51:10;41.75;;;14.18;;
75038;SDS011;63609;49.992;14.512;2022-12-20T15:53:41;34.90;;;13.77;;
75038;SDS011;63609;49.992;14.512;2022-12-20T15:56:19;39.38;;;14.68;;
75038;SDS011;63609;49.992;14.512;2022-12-20T15:58:48;36.72;;;14.23;;
75038;SDS011;63609;49.992;14.512;2022-12-20T16:01:17;39.53;;;13.68;;
75038;SDS011;63609;49.992;14.512;2022-12-20T16:03:51;29.73;;;11.25;;
75038;SDS011;63609;49.992;14.512;2022-12-20T16:06:22;37.55;;;12.07;;
75038;SDS011;63609;49.992;14.512;2022-12-20T16:08:55;32.20;;;13.27;;
75038;SDS011;63609;49.992;14.512;2022-12-20T16:11:26;35.95;;;12.18;;
75038;SDS011;63609;49.992;14.512;2022-12-20T16:13:57;33.92;;;11.68;;
75038;SDS011;63609;49.992;14.512;2022-12-20T16:16:26;27.65;;;12.30;;
75038;SDS011;63609;49.992;14.512;2022-12-20T16:19:01;26.00;;;9.68;;
75038;SDS011;63609;49.992;14.512;2022-12-20T16:21:30;33.58;;;11.45;;
75038;SDS011;63609;49.992;14.512;2022-12-20T16:24:21;28.80;;;10.63;;
75038;SDS011;63609;49.992;14.512;2022-12-20T16:27:52;30.35;;;9.98;;
75038;SDS011;63609;49.992;14.512;2022-12-20T16:30:43;34.17;;;12.52;;
75038;SDS011;63609;49.992;14.512;2022-12-20T16:33:33;28.70;;;11.40;;
75038;SDS011;63609;49.992;14.512;2022-12-20T16:36:10;35.90;;;13.15;;
75038;SDS011;63609;49.992;14.512;2022-12-20T16:38:48;34.35;;;12.43;;
75038;SDS011;63609;49.992;14.512;2022-12-20T16:41:19;44.30;;;13.32;;
75038;SDS011;63609;49.992;14.512;2022-12-20T16:44:37;38.13;;;12.77;;
75038;SDS011;63609;49.992;14.512;2022-12-20T16:47:15;39.95;;;13.55;;
75038;SDS011;63609;49.992;14.512;2022-12-20T16:49:43;33.85;;;13.15;;
75038;SDS011;63609;49.992;14.512;2022-12-20T16:52:18;37.35;;;14.38;;
75038;SDS011;63609;49.992;14.512;2022-12-20T16:54:53;28.85;;;11.35;;
75038;SDS011;63609;49.992;14.512;2022-12-20T16:57:29;33.55;;;12.85;;
75038;SDS011;63609;49.992;14.512;2022-12-20T17:00:03;38.08;;;14.30;;
75038;SDS011;63609;49.992;14.512;2022-12-20T17:02:32;39.75;;;12.93;;
75038;SDS011;63609;49.992;14.512;2022-12-20T17:05:01;29.83;;;11.52;;
75038;SDS011;63609;49.992;14.512;2022-12-20T17:07:29;39.75;;;13.70;;
75038;SDS011;63609;49.992;14.512;2022-12-20T17:10:07;39.00;;;13.82;;
75038;SDS011;63609;49.992;14.512;2022-12-20T17:12:43;27.20;;;11.35;;
75038;SDS011;63609;49.992;14.512;2022-12-20T17:15:15;40.45;;;14.30;;
75038;SDS011;63609;49.992;14.512;2022-12-20T17:17:44;28.05;;;12.15;;
75038;SDS011;63609;49.992;14.512;2022-12-20T17:20:12;33.67;;;13.40;;
75038;SDS011;63609;49.992;14.512;2022-12-20T17:22:40;36.40;;;13.80;;
75038;SDS011;63609;49.992;14.512;2022-12-20T17:25:52;35.33;;;13.07;;
75038;SDS011;63609;49.992;14.512;2022-12-20T17:28:34;31.95;;;12.15;;
75038;SDS011;63609;49.992;14.512;2022-12-20T17:31:05;26.65;;;11.20;;
75038;SDS011;63609;49.992;14.512;2022-12-20T17:33:49;33.00;;;13.25;;
75038;SDS011;63609;49.992;14.512;2022-12-20T17:36:23;35.83;;;13.32;;
75038;SDS011;63609;49.992;14.512;2022-12-20T17:38:51;28.27;;;11.73;;
75038;SDS011;63609;49.992;14.512;2022-12-20T17:41:23;31.48;;;12.45;;
75038;SDS011;63609;49.992;14.512;2022-12-20T17:43:59;33.58;;;12.20;;
75038;SDS011;63609;49.992;14.512;2022-12-20T17:47:29;36.72;;;11.73;;
75038;SDS011;63609;49.992;14.512;2022-12-20T17:50:04;34.47;;;11.68;;
75038;SDS011;63609;49.992;14.512;2022-12-20T17:53:03;38.92;;;13.23;;
75038;SDS011;63609;49.992;14.512;2022-12-20T17:56:10;37.53;;;13.73;;
75038;SDS011;63609;49.992;14.512;2022-12-20T17:58:54;33.22;;;12.65;;
75038;SDS011;63609;49.992;14.512;2022-12-20T18:01:39;35.17;;;12.68;;
75038;SDS011;63609;49.992;14.512;2022-12-20T18:04:10;39.28;;;13.50;;
75038;SDS011;63609;49.992;14.512;2022-12-20T18:06:50;39.75;;;14.70;;
75038;SDS011;63609;49.992;14.512;2022-12-20T18:09:37;34.80;;;13.38;;
75038;SDS011;63609;49.992;14.512;2022-12-20T18:12:27;38.90;;;14.60;;
75038;SDS011;63609;49.992;14.512;2022-12-20T18:15:14;46.13;;;16.98;;
75038;SDS011;63609;49.992;14.512;2022-12-20T18:18:26;40.58;;;15.90;;
75038;SDS011;63609;49.992;14.512;2022-12-20T18:21:11;34.70;;;12.98;;
75038;SDS011;63609;49.992;14.512;2022-12-20T18:24:23;38.00;;;12.68;;
75038;SDS011;63609;49.992;14.512;2022-12-20T18:26:57;35.17;;;13.15;;
75038;SDS011;63609;49.992;14.512;2022-12-20T18:29:28;33.70;;;12.98;;
75038;SDS011;63609;49.992;14.512;2022-12-20T18:32:24;37.03;;;13.25;;
75038;SDS011;63609;49.992;14.512;2022-12-20T18:34:51;37.10;;;13.40;;
75038;SDS011;63609;49.992;14.512;2022-12-20T18:37:20;39.45;;;13.65;;
75038;SDS011;63609;49.992;14.512;2022-12-20T18:39:54;42.95;;;15.30;;
75038;SDS011;63609;49.992;14.512;2022-12-20T18:42:23;42.90;;;14.93;;
75038;SDS011;63609;49.992;14.512;2022-12-20T18:44:51;37.50;;;14.40;;
75038;SDS011;63609;49.992;14.512;2022-12-20T18:51:11;35.58;;;13.13;;
75038;SDS011;63609;49.992;14.512;2022-12-20T18:54:27;41.83;;;14.48;;
75038;SDS011;63609;49.992;14.512;2022-12-20T18:57:00;35.80;;;13.30;;
75038;SDS011;63609;49.992;14.512;2022-12-20T19:00:23;36.47;;;13.68;;
75038;SDS011;63609;49.992;14.512;2022-12-20T19:03:05;37.17;;;12.88;;
75038;SDS011;63609;49.992;14.512;2022-12-20T19:06:38;36.90;;;14.75;;
75038;SDS011;63609;49.992;14.512;2022-12-20T19:12:59;37.67;;;13.60;;
75038;SDS011;63609;49.992;14.512;2022-12-20T19:16:00;36.50;;;14.43;;
75038;SDS011;63609;49.992;14.512;2022-12-20T19:19:04;35.78;;;11.85;;
75038;SDS011;63609;49.992;14.512;2022-12-20T19:21:46;35.10;;;12.80;;
75038;SDS011;63609;49.992;14.512;2022-12-20T19:25:12;32.67;;;12.30;;
75038;SDS011;63609;49.992;14.512;2022-12-20T19:28:07;38.30;;;14.82;;
75038;SDS011;63609;49.992;14.512;2022-12-20T19:30:51;39.53;;;15.63;;
75038;SDS011;63609;49.992;14.512;2022-12-20T19:33:35;37.03;;;14.32;;
75038;SDS011;63609;49.992;14.512;2022-12-20T19:36:18;39.13;;;15.52;;
75038;SDS011;63609;49.992;14.512;2022-12-20T19:38:51;40.97;;;14.93;;
75038;SDS011;63609;49.992;14.512;2022-12-20T19:45:51;39.85;;;14.50;;
75038;SDS011;63609;49.992;14.512;2022-12-20T19:48:28;37.95;;;14.30;;
75038;SDS011;63609;49.992;14.512;2022-12-20T19:51:10;48.63;;;17.25;;
75038;SDS011;63609;49.992;14.512;2022-12-20T19:53:43;43.47;;;17.50;;
75038;SDS011;63609;49.992;14.512;2022-12-20T19:56:27;41.22;;;16.17;;
75038;SDS011;63609;49.992;14.512;2022-12-20T19:59:04;43.88;;;16.25;;
75038;SDS011;63609;49.992;14.512;2022-12-20T20:04:39;39.55;;;15.57;;
75038;SDS011;63609;49.992;14.512;2022-12-20T20:07:09;44.72;;;17.45;;
75038;SDS011;63609;49.992;14.512;2022-12-20T20:09:43;37.22;;;15.65;;